sensor_id;sensor_type;location;lat;lon;timestamp;temperature;humidity
5705;DHT22;2877;48.238;11.160;2023-08-01T00:01:24;17.60;99.90
5705;DHT22;2877;48.238;11.160;2023-08-01T00:03:49;17.60;99.90
5705;DHT22;2877;48.238;11.160;2023-08-01T00:06:15;17.60;99.90
5705;DHT22;2877;48.238;11.160;2023-08-01T00:08:40;17.50;99.90
5705;DHT22;2877;48.238;11.160;2023-08-01T00:11:06;17.50;99.90
5705;DHT22;2877;48.238;11.160;2023-08-01T00:13:31;17.50;99.90
5705;DHT22;2877;48.238;11.160;2023-08-01T00:15:57;17.50;99.90
5705;DHT22;2877;48.238;11.160;2023-08-01T00:18:22;17.50;99.90
5705;DHT22;2877;48.238;11.160;2023-08-01T00:20:48;17.50;99.90
5705;DHT22;2877;48.238;11.160;2023-08-01T00:23:13;17.50;99.90
5705;DHT22;2877;48.238;11.160;2023-08-01T00:25:39;17.50;99.90
5705;DHT22;2877;48.238;11.160;2023-08-01T00:28:05;17.50;99.90
5705;DHT22;2877;48.238;11.160;2023-08-01T00:30:30;17.50;99.90
5705;DHT22;2877;48.238;11.160;2023-08-01T00:32:56;17.50;99.90
5705;DHT22;2877;48.238;11.160;2023-08-01T00:35:21;17.60;99.90
5705;DHT22;2877;48.238;11.160;2023-08-01T00:37:47;17.60;99.90
5705;DHT22;2877;48.238;11.160;2023-08-01T00:40:12;17.60;99.90
5705;DHT22;2877;48.238;11.160;2023-08-01T00:42:38;17.50;99.90
5705;DHT22;2877;48.238;11.160;2023-08-01T00:45:04;17.50;99.90
5705;DHT22;2877;48.238;11.160;2023-08-01T00:47:30;17.50;99.90
5705;DHT22;2877;48.238;11.160;2023-08-01T00:49:56;17.40;99.90
5705;DHT22;2877;48.238;11.160;2023-08-01T00:52:21;17.40;99.90
5705;DHT22;2877;48.238;11.160;2023-08-01T00:54:47;17.40;99.90
5705;DHT22;2877;48.238;11.160;2023-08-01T00:57:13;17.40;99.90
5705;DHT22;2877;48.238;11.160;2023-08-01T00:59:39;17.40;99.90
5705;DHT22;2877;48.238;11.160;2023-08-01T01:02:05;17.40;99.90
5705;DHT22;2877;48.238;11.160;2023-08-01T01:04:31;17.30;99.90
5705;DHT22;2877;48.238;11.160;2023-08-01T01:07:03;17.30;99.90
5705;DHT22;2877;48.238;11.160;2023-08-01T01:09:29;17.40;99.90
5705;DHT22;2877;48.238;11.160;2023-08-01T01:11:58;17.40;99.90
5705;DHT22;2877;48.238;11.160;2023-08-01T01:14:25;17.40;99.90
5705;DHT22;2877;48.238;11.160;2023-08-01T01:16:51;17.40;99.90
5705;DHT22;2877;48.238;11.160;2023-08-01T01:19:17;17.40;99.90
5705;DHT22;2877;48.238;11.160;2023-08-01T01:21:43;17.40;99.90
5705;DHT22;2877;48.238;11.160;2023-08-01T01:24:10;17.40;99.90
5705;DHT22;2877;48.238;11.160;2023-08-01T01:26:37;17.40;99.90
5705;DHT22;2877;48.238;11.160;2023-08-01T01:29:04;17.40;99.90
5705;DHT22;2877;48.238;11.160;2023-08-01T01:31:32;17.40;99.90
5705;DHT22;2877;48.238;11.160;2023-08-01T01:33:58;17.30;99.90
5705;DHT22;2877;48.238;11.160;2023-08-01T01:36:24;17.30;99.90
5705;DHT22;2877;48.238;11.160;2023-08-01T01:38:50;17.20;99.90
5705;DHT22;2877;48.238;11.160;2023-08-01T01:41:15;17.10;99.90
5705;DHT22;2877;48.238;11.160;2023-08-01T01:43:41;17.10;99.90
5705;DHT22;2877;48.238;11.160;2023-08-01T01:46:07;17.10;99.90
5705;DHT22;2877;48.238;11.160;2023-08-01T01:48:32;17.00;99.90
5705;DHT22;2877;48.238;11.160;2023-08-01T01:50:58;17.00;99.90
5705;DHT22;2877;48.238;11.160;2023-08-01T01:53:24;16.90;99.90
5705;DHT22;2877;48.238;11.160;2023-08-01T01:55:49;16.90;99.90
5705;DHT22;2877;48.238;11.160;2023-08-01T01:58:15;16.90;99.90
5705;DHT22;2877;48.238;11.160;2023-08-01T02:00:40;16.90;99.90
5705;DHT22;2877;48.238;11.160;2023-08-01T02:03:06;16.90;99.90
5705;DHT22;2877;48.238;11.160;2023-08-01T02:05:39;17.00;99.90
5705;DHT22;2877;48.238;11.160;2023-08-01T02:08:05;17.00;99.90
5705;DHT22;2877;48.238;11.160;2023-08-01T02:10:30;17.00;99.90
5705;DHT22;2877;48.238;11.160;2023-08-01T02:12:56;16.90;99.90
5705;DHT22;2877;48.238;11.160;2023-08-01T02:15:21;16.90;99.90
5705;DHT22;2877;48.238;11.160;2023-08-01T02:17:47;16.90;99.90
5705;DHT22;2877;48.238;11.160;2023-08-01T02:20:12;16.90;99.90
5705;DHT22;2877;48.238;11.160;2023-08-01T02:22:38;16.90;99.90
5705;DHT22;2877;48.238;11.160;2023-08-01T02:25:04;16.90;99.90
5705;DHT22;2877;48.238;11.160;2023-08-01T02:27:29;16.90;99.90
5705;DHT22;2877;48.238;11.160;2023-08-01T02:29:55;16.90;99.90
5705;DHT22;2877;48.238;11.160;2023-08-01T02:32:21;16.90;99.90
5705;DHT22;2877;48.238;11.160;2023-08-01T02:34:47;16.90;99.90
5705;DHT22;2877;48.238;11.160;2023-08-01T02:37:13;16.90;99.90
5705;DHT22;2877;48.238;11.160;2023-08-01T02:39:38;16.90;99.90
5705;DHT22;2877;48.238;11.160;2023-08-01T02:42:04;16.90;99.90
5705;DHT22;2877;48.238;11.160;2023-08-01T02:44:29;16.90;99.90
5705;DHT22;2877;48.238;11.160;2023-08-01T02:46:55;17.00;99.90
5705;DHT22;2877;48.238;11.160;2023-08-01T02:49:21;17.00;99.90
5705;DHT22;2877;48.238;11.160;2023-08-01T02:51:46;17.00;99.90
5705;DHT22;2877;48.238;11.160;2023-08-01T02:54:12;17.00;99.90
5705;DHT22;2877;48.238;11.160;2023-08-01T02:56:37;17.10;99.90
5705;DHT22;2877;48.238;11.160;2023-08-01T02:59:09;17.10;99.90
5705;DHT22;2877;48.238;11.160;2023-08-01T03:01:35;17.00;99.90
5705;DHT22;2877;48.238;11.160;2023-08-01T03:04:05;17.30;99.90
5705;DHT22;2877;48.238;11.160;2023-08-01T03:06:32;17.40;99.90
5705;DHT22;2877;48.238;11.160;2023-08-01T03:08:58;17.60;99.90
5705;DHT22;2877;48.238;11.160;2023-08-01T03:11:23;17.70;99.90
5705;DHT22;2877;48.238;11.160;2023-08-01T03:13:49;17.60;99.90
5705;DHT22;2877;48.238;11.160;2023-08-01T03:16:16;17.40;99.90
5705;DHT22;2877;48.238;11.160;2023-08-01T03:18:41;17.30;99.90
5705;DHT22;2877;48.238;11.160;2023-08-01T03:21:07;17.10;99.90
5705;DHT22;2877;48.238;11.160;2023-08-01T03:23:33;17.20;99.90
5705;DHT22;2877;48.238;11.160;2023-08-01T03:25:59;17.20;99.90
5705;DHT22;2877;48.238;11.160;2023-08-01T03:28:26;17.30;99.90
5705;DHT22;2877;48.238;11.160;2023-08-01T03:30:52;17.20;99.90
5705;DHT22;2877;48.238;11.160;2023-08-01T03:33:21;17.10;99.90
5705;DHT22;2877;48.238;11.160;2023-08-01T03:35:47;17.00;99.90
5705;DHT22;2877;48.238;11.160;2023-08-01T03:38:13;17.10;99.90
5705;DHT22;2877;48.238;11.160;2023-08-01T03:40:38;17.00;99.90
5705;DHT22;2877;48.238;11.160;2023-08-01T03:43:04;16.80;99.90
5705;DHT22;2877;48.238;11.160;2023-08-01T03:45:31;16.60;99.90
5705;DHT22;2877;48.238;11.160;2023-08-01T03:47:57;16.40;99.90
5705;DHT22;2877;48.238;11.160;2023-08-01T03:50:23;16.20;99.90
5705;DHT22;2877;48.238;11.160;2023-08-01T03:52:49;16.10;99.90
5705;DHT22;2877;48.238;11.160;2023-08-01T03:55:14;16.00;99.90
5705;DHT22;2877;48.238;11.160;2023-08-01T03:57:40;15.90;99.90
5705;DHT22;2877;48.238;11.160;2023-08-01T04:00:06;15.80;99.90
5705;DHT22;2877;48.238;11.160;2023-08-01T04:02:41;15.80;99.90
5705;DHT22;2877;48.238;11.160;2023-08-01T04:05:08;15.80;99.90
5705;DHT22;2877;48.238;11.160;2023-08-01T04:07:35;15.80;99.90
5705;DHT22;2877;48.238;11.160;2023-08-01T04:10:01;15.90;99.90
5705;DHT22;2877;48.238;11.160;2023-08-01T04:12:27;15.80;99.90
5705;DHT22;2877;48.238;11.160;2023-08-01T04:14:53;15.80;99.90
5705;DHT22;2877;48.238;11.160;2023-08-01T04:17:18;15.80;99.90
5705;DHT22;2877;48.238;11.160;2023-08-01T04:19:44;15.80;99.90
5705;DHT22;2877;48.238;11.160;2023-08-01T04:22:09;15.90;99.90
5705;DHT22;2877;48.238;11.160;2023-08-01T04:24:35;15.90;99.90
5705;DHT22;2877;48.238;11.160;2023-08-01T04:27:00;15.90;99.90
5705;DHT22;2877;48.238;11.160;2023-08-01T04:29:26;15.90;99.90
5705;DHT22;2877;48.238;11.160;2023-08-01T04:31:51;15.90;99.90
5705;DHT22;2877;48.238;11.160;2023-08-01T04:34:18;16.00;99.90
5705;DHT22;2877;48.238;11.160;2023-08-01T04:36:43;16.00;99.90
5705;DHT22;2877;48.238;11.160;2023-08-01T04:39:09;16.00;99.90
5705;DHT22;2877;48.238;11.160;2023-08-01T04:41:34;16.00;99.90
5705;DHT22;2877;48.238;11.160;2023-08-01T04:44:00;16.00;99.90
5705;DHT22;2877;48.238;11.160;2023-08-01T04:46:25;16.00;99.90
5705;DHT22;2877;48.238;11.160;2023-08-01T04:48:51;16.10;99.90
5705;DHT22;2877;48.238;11.160;2023-08-01T04:51:16;16.10;99.90
5705;DHT22;2877;48.238;11.160;2023-08-01T04:53:42;16.10;99.90
5705;DHT22;2877;48.238;11.160;2023-08-01T04:56:07;16.20;99.90
5705;DHT22;2877;48.238;11.160;2023-08-01T04:58:33;16.20;99.90
5705;DHT22;2877;48.238;11.160;2023-08-01T05:00:58;16.30;99.90
5705;DHT22;2877;48.238;11.160;2023-08-01T05:03:24;16.30;99.90
5705;DHT22;2877;48.238;11.160;2023-08-01T05:05:49;16.30;99.90
5705;DHT22;2877;48.238;11.160;2023-08-01T05:08:15;16.30;99.90
5705;DHT22;2877;48.238;11.160;2023-08-01T05:10:40;16.30;99.90
5705;DHT22;2877;48.238;11.160;2023-08-01T05:13:06;16.40;99.90
5705;DHT22;2877;48.238;11.160;2023-08-01T05:15:32;16.40;99.90
5705;DHT22;2877;48.238;11.160;2023-08-01T05:17:57;16.40;99.90
5705;DHT22;2877;48.238;11.160;2023-08-01T05:20:23;16.40;99.90
5705;DHT22;2877;48.238;11.160;2023-08-01T05:22:48;16.40;99.90
5705;DHT22;2877;48.238;11.160;2023-08-01T05:25:14;16.50;99.90
5705;DHT22;2877;48.238;11.160;2023-08-01T05:27:39;16.50;99.90
5705;DHT22;2877;48.238;11.160;2023-08-01T05:30:05;16.60;99.90
5705;DHT22;2877;48.238;11.160;2023-08-01T05:32:31;16.60;99.90
5705;DHT22;2877;48.238;11.160;2023-08-01T05:34:56;16.70;99.90
5705;DHT22;2877;48.238;11.160;2023-08-01T05:37:22;16.70;99.90
5705;DHT22;2877;48.238;11.160;2023-08-01T05:39:48;16.80;99.90
5705;DHT22;2877;48.238;11.160;2023-08-01T05:42:13;17.00;99.90
5705;DHT22;2877;48.238;11.160;2023-08-01T05:44:39;17.00;99.90
5705;DHT22;2877;48.238;11.160;2023-08-01T05:47:04;17.00;99.90
5705;DHT22;2877;48.238;11.160;2023-08-01T05:49:30;17.10;99.90
5705;DHT22;2877;48.238;11.160;2023-08-01T05:51:55;17.10;99.90
5705;DHT22;2877;48.238;11.160;2023-08-01T05:54:21;17.10;99.90
5705;DHT22;2877;48.238;11.160;2023-08-01T05:56:47;17.20;99.90
5705;DHT22;2877;48.238;11.160;2023-08-01T05:59:12;17.20;99.90
5705;DHT22;2877;48.238;11.160;2023-08-01T06:01:38;17.20;99.90
5705;DHT22;2877;48.238;11.160;2023-08-01T06:04:03;17.20;99.90
5705;DHT22;2877;48.238;11.160;2023-08-01T06:06:29;17.20;99.90
5705;DHT22;2877;48.238;11.160;2023-08-01T06:08:54;17.20;99.90
5705;DHT22;2877;48.238;11.160;2023-08-01T06:11:21;17.20;99.90
5705;DHT22;2877;48.238;11.160;2023-08-01T06:13:46;17.20;99.90
5705;DHT22;2877;48.238;11.160;2023-08-01T06:16:12;17.20;99.90
5705;DHT22;2877;48.238;11.160;2023-08-01T06:18:39;17.20;99.90
5705;DHT22;2877;48.238;11.160;2023-08-01T06:21:04;17.20;99.90
5705;DHT22;2877;48.238;11.160;2023-08-01T06:23:30;17.20;99.90
5705;DHT22;2877;48.238;11.160;2023-08-01T06:25:55;17.10;99.90
5705;DHT22;2877;48.238;11.160;2023-08-01T06:28:21;17.10;99.90
5705;DHT22;2877;48.238;11.160;2023-08-01T06:30:46;17.10;99.90
5705;DHT22;2877;48.238;11.160;2023-08-01T06:33:12;17.10;99.90
5705;DHT22;2877;48.238;11.160;2023-08-01T06:35:37;17.10;99.90
5705;DHT22;2877;48.238;11.160;2023-08-01T06:38:03;17.20;99.90
5705;DHT22;2877;48.238;11.160;2023-08-01T06:40:28;17.20;99.90
5705;DHT22;2877;48.238;11.160;2023-08-01T06:42:54;17.10;99.90
5705;DHT22;2877;48.238;11.160;2023-08-01T06:45:19;17.20;99.90
5705;DHT22;2877;48.238;11.160;2023-08-01T06:47:45;17.20;99.90
5705;DHT22;2877;48.238;11.160;2023-08-01T06:50:10;17.20;99.90
5705;DHT22;2877;48.238;11.160;2023-08-01T06:52:36;17.30;99.90
5705;DHT22;2877;48.238;11.160;2023-08-01T06:55:02;17.40;99.90
5705;DHT22;2877;48.238;11.160;2023-08-01T06:57:27;17.40;99.90
5705;DHT22;2877;48.238;11.160;2023-08-01T06:59:53;17.50;99.90
5705;DHT22;2877;48.238;11.160;2023-08-01T07:02:18;17.60;99.90
5705;DHT22;2877;48.238;11.160;2023-08-01T07:04:44;17.60;99.90
5705;DHT22;2877;48.238;11.160;2023-08-01T07:07:09;17.70;99.90
5705;DHT22;2877;48.238;11.160;2023-08-01T07:09:35;17.80;99.90
5705;DHT22;2877;48.238;11.160;2023-08-01T07:12:01;18.00;99.90
5705;DHT22;2877;48.238;11.160;2023-08-01T07:14:26;18.10;99.90
5705;DHT22;2877;48.238;11.160;2023-08-01T07:16:52;18.10;99.90
5705;DHT22;2877;48.238;11.160;2023-08-01T07:19:17;18.10;99.90
5705;DHT22;2877;48.238;11.160;2023-08-01T07:21:43;18.20;99.90
5705;DHT22;2877;48.238;11.160;2023-08-01T07:24:11;18.20;99.90
5705;DHT22;2877;48.238;11.160;2023-08-01T07:26:39;18.30;99.90
5705;DHT22;2877;48.238;11.160;2023-08-01T07:29:04;18.30;99.90
5705;DHT22;2877;48.238;11.160;2023-08-01T07:31:30;18.50;99.90
5705;DHT22;2877;48.238;11.160;2023-08-01T07:33:55;18.60;99.90
5705;DHT22;2877;48.238;11.160;2023-08-01T07:36:21;18.80;99.90
5705;DHT22;2877;48.238;11.160;2023-08-01T07:38:47;19.00;99.90
5705;DHT22;2877;48.238;11.160;2023-08-01T07:41:12;19.10;99.90
5705;DHT22;2877;48.238;11.160;2023-08-01T07:43:38;19.40;99.90
5705;DHT22;2877;48.238;11.160;2023-08-01T07:46:03;19.50;99.90
5705;DHT22;2877;48.238;11.160;2023-08-01T07:48:29;19.50;99.90
5705;DHT22;2877;48.238;11.160;2023-08-01T07:50:54;19.40;99.90
5705;DHT22;2877;48.238;11.160;2023-08-01T07:53:20;19.40;99.90
5705;DHT22;2877;48.238;11.160;2023-08-01T07:55:45;19.30;99.90
5705;DHT22;2877;48.238;11.160;2023-08-01T07:58:11;19.20;99.90
5705;DHT22;2877;48.238;11.160;2023-08-01T08:00:37;19.10;99.90
5705;DHT22;2877;48.238;11.160;2023-08-01T08:03:02;19.10;99.90
5705;DHT22;2877;48.238;11.160;2023-08-01T08:05:28;19.10;99.90
5705;DHT22;2877;48.238;11.160;2023-08-01T08:07:53;19.10;99.90
5705;DHT22;2877;48.238;11.160;2023-08-01T08:10:19;19.20;99.90
5705;DHT22;2877;48.238;11.160;2023-08-01T08:12:44;19.00;99.90
5705;DHT22;2877;48.238;11.160;2023-08-01T08:15:10;18.90;99.90
5705;DHT22;2877;48.238;11.160;2023-08-01T08:17:36;18.80;99.90
5705;DHT22;2877;48.238;11.160;2023-08-01T08:20:02;18.80;99.90
5705;DHT22;2877;48.238;11.160;2023-08-01T08:22:28;18.90;99.90
5705;DHT22;2877;48.238;11.160;2023-08-01T08:24:54;19.00;99.90
5705;DHT22;2877;48.238;11.160;2023-08-01T08:27:19;19.10;99.90
5705;DHT22;2877;48.238;11.160;2023-08-01T08:29:45;19.10;99.90
5705;DHT22;2877;48.238;11.160;2023-08-01T08:32:10;19.00;99.90
5705;DHT22;2877;48.238;11.160;2023-08-01T08:34:36;19.00;99.90
5705;DHT22;2877;48.238;11.160;2023-08-01T08:37:02;19.10;99.90
5705;DHT22;2877;48.238;11.160;2023-08-01T08:39:27;19.20;99.90
5705;DHT22;2877;48.238;11.160;2023-08-01T08:41:53;19.10;99.90
5705;DHT22;2877;48.238;11.160;2023-08-01T08:44:19;19.10;99.90
5705;DHT22;2877;48.238;11.160;2023-08-01T08:46:51;19.20;99.90
5705;DHT22;2877;48.238;11.160;2023-08-01T08:49:17;19.30;99.90
5705;DHT22;2877;48.238;11.160;2023-08-01T08:51:45;19.40;99.90
5705;DHT22;2877;48.238;11.160;2023-08-01T08:54:11;19.50;99.90
5705;DHT22;2877;48.238;11.160;2023-08-01T08:56:38;19.70;99.90
5705;DHT22;2877;48.238;11.160;2023-08-01T08:59:04;19.70;99.90
5705;DHT22;2877;48.238;11.160;2023-08-01T09:01:31;19.80;99.90
5705;DHT22;2877;48.238;11.160;2023-08-01T09:03:57;20.00;99.90
5705;DHT22;2877;48.238;11.160;2023-08-01T09:06:30;20.20;99.90
5705;DHT22;2877;48.238;11.160;2023-08-01T09:09:05;20.30;99.90
5705;DHT22;2877;48.238;11.160;2023-08-01T09:11:48;20.10;99.90
5705;DHT22;2877;48.238;11.160;2023-08-01T09:14:14;20.20;99.90
5705;DHT22;2877;48.238;11.160;2023-08-01T09:16:40;20.10;99.90
5705;DHT22;2877;48.238;11.160;2023-08-01T09:19:07;19.90;99.90
5705;DHT22;2877;48.238;11.160;2023-08-01T09:21:34;19.90;99.90
5705;DHT22;2877;48.238;11.160;2023-08-01T09:24:15;20.00;99.90
5705;DHT22;2877;48.238;11.160;2023-08-01T09:26:42;20.10;99.90
5705;DHT22;2877;48.238;11.160;2023-08-01T09:29:08;20.20;99.90
5705;DHT22;2877;48.238;11.160;2023-08-01T09:31:37;20.10;99.90
5705;DHT22;2877;48.238;11.160;2023-08-01T09:34:05;20.00;99.90
5705;DHT22;2877;48.238;11.160;2023-08-01T09:36:31;20.10;99.90
5705;DHT22;2877;48.238;11.160;2023-08-01T09:39:00;20.20;99.90
5705;DHT22;2877;48.238;11.160;2023-08-01T09:41:26;20.50;99.90
5705;DHT22;2877;48.238;11.160;2023-08-01T09:43:53;20.60;99.90
5705;DHT22;2877;48.238;11.160;2023-08-01T09:46:19;21.00;99.90
5705;DHT22;2877;48.238;11.160;2023-08-01T09:48:44;21.10;99.90
5705;DHT22;2877;48.238;11.160;2023-08-01T09:51:14;21.10;99.90
5705;DHT22;2877;48.238;11.160;2023-08-01T09:56:15;19.70;99.90
5705;DHT22;2877;48.238;11.160;2023-08-01T09:58:42;18.60;99.90
5705;DHT22;2877;48.238;11.160;2023-08-01T10:01:08;17.80;99.90
5705;DHT22;2877;48.238;11.160;2023-08-01T10:03:34;17.30;99.90
5705;DHT22;2877;48.238;11.160;2023-08-01T10:06:00;16.90;99.90
5705;DHT22;2877;48.238;11.160;2023-08-01T10:08:28;16.50;99.90
5705;DHT22;2877;48.238;11.160;2023-08-01T10:10:54;16.30;99.90
5705;DHT22;2877;48.238;11.160;2023-08-01T10:13:23;16.20;99.90
5705;DHT22;2877;48.238;11.160;2023-08-01T10:15:53;16.10;99.90
5705;DHT22;2877;48.238;11.160;2023-08-01T10:18:19;16.00;99.90
5705;DHT22;2877;48.238;11.160;2023-08-01T10:20:46;15.90;99.90
5705;DHT22;2877;48.238;11.160;2023-08-01T10:23:12;15.90;99.90
5705;DHT22;2877;48.238;11.160;2023-08-01T10:25:38;16.00;99.90
5705;DHT22;2877;48.238;11.160;2023-08-01T10:28:05;16.00;99.90
5705;DHT22;2877;48.238;11.160;2023-08-01T10:30:31;16.20;99.90
5705;DHT22;2877;48.238;11.160;2023-08-01T10:32:58;16.20;99.90
5705;DHT22;2877;48.238;11.160;2023-08-01T10:35:38;16.20;99.90
5705;DHT22;2877;48.238;11.160;2023-08-01T10:38:09;16.20;99.90
5705;DHT22;2877;48.238;11.160;2023-08-01T10:40:40;16.30;99.90
5705;DHT22;2877;48.238;11.160;2023-08-01T10:43:19;16.40;99.90
5705;DHT22;2877;48.238;11.160;2023-08-01T10:45:46;16.50;99.90
5705;DHT22;2877;48.238;11.160;2023-08-01T10:48:12;16.60;99.90
5705;DHT22;2877;48.238;11.160;2023-08-01T10:50:40;16.60;99.90
5705;DHT22;2877;48.238;11.160;2023-08-01T10:53:08;16.60;99.90
5705;DHT22;2877;48.238;11.160;2023-08-01T10:55:41;16.60;99.90
5705;DHT22;2877;48.238;11.160;2023-08-01T10:58:07;16.70;99.90
5705;DHT22;2877;48.238;11.160;2023-08-01T11:00:33;16.70;99.90
5705;DHT22;2877;48.238;11.160;2023-08-01T11:02:59;16.70;99.90
5705;DHT22;2877;48.238;11.160;2023-08-01T11:05:24;16.90;99.90
5705;DHT22;2877;48.238;11.160;2023-08-01T11:10:26;17.30;99.90
5705;DHT22;2877;48.238;11.160;2023-08-01T11:12:52;17.60;99.90
5705;DHT22;2877;48.238;11.160;2023-08-01T11:15:18;17.70;99.90
5705;DHT22;2877;48.238;11.160;2023-08-01T11:17:49;17.80;99.90
5705;DHT22;2877;48.238;11.160;2023-08-01T11:20:17;17.90;99.90
5705;DHT22;2877;48.238;11.160;2023-08-01T11:25:30;18.10;99.90
5705;DHT22;2877;48.238;11.160;2023-08-01T11:27:57;17.90;99.90
5705;DHT22;2877;48.238;11.160;2023-08-01T11:30:30;17.80;99.90
5705;DHT22;2877;48.238;11.160;2023-08-01T11:32:56;17.60;99.90
5705;DHT22;2877;48.238;11.160;2023-08-01T11:35:22;17.40;99.90
5705;DHT22;2877;48.238;11.160;2023-08-01T11:37:50;17.30;99.90
5705;DHT22;2877;48.238;11.160;2023-08-01T11:40:16;16.90;99.90
5705;DHT22;2877;48.238;11.160;2023-08-01T11:42:41;16.80;99.90
5705;DHT22;2877;48.238;11.160;2023-08-01T11:45:12;16.60;99.90
5705;DHT22;2877;48.238;11.160;2023-08-01T11:47:44;16.70;99.90
5705;DHT22;2877;48.238;11.160;2023-08-01T11:50:10;16.70;99.90
5705;DHT22;2877;48.238;11.160;2023-08-01T11:52:36;16.90;99.90
5705;DHT22;2877;48.238;11.160;2023-08-01T11:55:02;17.10;99.90
5705;DHT22;2877;48.238;11.160;2023-08-01T11:57:28;17.40;99.90
5705;DHT22;2877;48.238;11.160;2023-08-01T11:59:55;17.70;99.90
5705;DHT22;2877;48.238;11.160;2023-08-01T12:02:24;18.00;99.90
5705;DHT22;2877;48.238;11.160;2023-08-01T12:04:51;18.10;99.90
5705;DHT22;2877;48.238;11.160;2023-08-01T12:07:17;18.00;99.90
5705;DHT22;2877;48.238;11.160;2023-08-01T12:09:44;17.90;99.90
5705;DHT22;2877;48.238;11.160;2023-08-01T12:12:10;17.80;99.90
5705;DHT22;2877;48.238;11.160;2023-08-01T12:14:41;17.70;99.90
5705;DHT22;2877;48.238;11.160;2023-08-01T12:17:07;17.70;99.90
5705;DHT22;2877;48.238;11.160;2023-08-01T12:19:33;17.80;99.90
5705;DHT22;2877;48.238;11.160;2023-08-01T12:21:59;18.10;99.90
5705;DHT22;2877;48.238;11.160;2023-08-01T12:24:25;18.20;99.90
5705;DHT22;2877;48.238;11.160;2023-08-01T12:26:50;18.20;99.90
5705;DHT22;2877;48.238;11.160;2023-08-01T12:29:16;18.20;99.90
5705;DHT22;2877;48.238;11.160;2023-08-01T12:31:41;18.20;99.90
5705;DHT22;2877;48.238;11.160;2023-08-01T12:34:08;18.40;99.90
5705;DHT22;2877;48.238;11.160;2023-08-01T12:36:33;18.50;99.90
5705;DHT22;2877;48.238;11.160;2023-08-01T12:38:59;18.60;99.90
5705;DHT22;2877;48.238;11.160;2023-08-01T12:41:24;18.90;99.90
5705;DHT22;2877;48.238;11.160;2023-08-01T12:43:50;19.00;99.90
5705;DHT22;2877;48.238;11.160;2023-08-01T12:46:15;18.70;99.90
5705;DHT22;2877;48.238;11.160;2023-08-01T12:48:41;18.50;99.90
5705;DHT22;2877;48.238;11.160;2023-08-01T12:51:07;18.70;99.90
5705;DHT22;2877;48.238;11.160;2023-08-01T12:53:33;18.70;99.90
5705;DHT22;2877;48.238;11.160;2023-08-01T12:55:58;18.90;99.90
5705;DHT22;2877;48.238;11.160;2023-08-01T12:58:24;19.10;99.90
5705;DHT22;2877;48.238;11.160;2023-08-01T13:00:49;18.80;99.90
5705;DHT22;2877;48.238;11.160;2023-08-01T13:03:15;18.50;99.90
5705;DHT22;2877;48.238;11.160;2023-08-01T13:05:42;18.40;99.90
5705;DHT22;2877;48.238;11.160;2023-08-01T13:08:08;18.40;99.90
5705;DHT22;2877;48.238;11.160;2023-08-01T13:10:35;18.50;99.90
5705;DHT22;2877;48.238;11.160;2023-08-01T13:13:01;18.60;99.90
5705;DHT22;2877;48.238;11.160;2023-08-01T13:15:29;19.10;99.90
5705;DHT22;2877;48.238;11.160;2023-08-01T13:17:55;20.50;99.90
5705;DHT22;2877;48.238;11.160;2023-08-01T13:20:21;22.20;99.90
5705;DHT22;2877;48.238;11.160;2023-08-01T13:22:49;23.50;99.90
5705;DHT22;2877;48.238;11.160;2023-08-01T13:25:14;24.60;99.90
5705;DHT22;2877;48.238;11.160;2023-08-01T13:27:41;24.50;99.90
5705;DHT22;2877;48.238;11.160;2023-08-01T13:30:07;22.80;99.90
5705;DHT22;2877;48.238;11.160;2023-08-01T13:32:33;21.40;99.90
5705;DHT22;2877;48.238;11.160;2023-08-01T13:34:59;20.10;99.90
5705;DHT22;2877;48.238;11.160;2023-08-01T13:37:25;19.70;99.90
5705;DHT22;2877;48.238;11.160;2023-08-01T13:39:50;19.50;99.90
5705;DHT22;2877;48.238;11.160;2023-08-01T13:42:16;19.30;99.90
5705;DHT22;2877;48.238;11.160;2023-08-01T13:44:41;18.70;99.90
5705;DHT22;2877;48.238;11.160;2023-08-01T13:47:07;18.20;99.90
5705;DHT22;2877;48.238;11.160;2023-08-01T13:49:33;18.00;99.90
5705;DHT22;2877;48.238;11.160;2023-08-01T13:51:59;17.50;99.90
5705;DHT22;2877;48.238;11.160;2023-08-01T13:54:25;16.20;99.90
5705;DHT22;2877;48.238;11.160;2023-08-01T13:56:51;15.50;99.90
5705;DHT22;2877;48.238;11.160;2023-08-01T13:59:17;15.20;99.90
5705;DHT22;2877;48.238;11.160;2023-08-01T14:01:42;15.00;99.90
5705;DHT22;2877;48.238;11.160;2023-08-01T14:04:08;15.00;99.90
5705;DHT22;2877;48.238;11.160;2023-08-01T14:06:33;15.00;99.90
5705;DHT22;2877;48.238;11.160;2023-08-01T14:08:59;15.10;99.90
5705;DHT22;2877;48.238;11.160;2023-08-01T14:11:24;15.30;99.90
5705;DHT22;2877;48.238;11.160;2023-08-01T14:13:50;15.60;99.90
5705;DHT22;2877;48.238;11.160;2023-08-01T14:16:16;15.70;99.90
5705;DHT22;2877;48.238;11.160;2023-08-01T14:18:42;16.30;99.90
5705;DHT22;2877;48.238;11.160;2023-08-01T14:21:09;17.10;99.90
5705;DHT22;2877;48.238;11.160;2023-08-01T14:23:35;17.80;99.90
5705;DHT22;2877;48.238;11.160;2023-08-01T14:26:03;17.90;99.90
5705;DHT22;2877;48.238;11.160;2023-08-01T14:28:29;17.80;99.90
5705;DHT22;2877;48.238;11.160;2023-08-01T14:30:54;17.60;99.90
5705;DHT22;2877;48.238;11.160;2023-08-01T14:33:20;17.70;99.90
5705;DHT22;2877;48.238;11.160;2023-08-01T14:35:46;17.90;99.90
5705;DHT22;2877;48.238;11.160;2023-08-01T14:38:12;18.60;99.90
5705;DHT22;2877;48.238;11.160;2023-08-01T14:40:37;19.60;99.90
5705;DHT22;2877;48.238;11.160;2023-08-01T14:43:04;21.10;99.90
5705;DHT22;2877;48.238;11.160;2023-08-01T14:45:30;22.20;99.90
5705;DHT22;2877;48.238;11.160;2023-08-01T14:47:56;22.80;99.90
5705;DHT22;2877;48.238;11.160;2023-08-01T14:50:21;23.60;99.90
5705;DHT22;2877;48.238;11.160;2023-08-01T14:52:47;23.90;99.90
5705;DHT22;2877;48.238;11.160;2023-08-01T14:55:13;23.10;99.90
5705;DHT22;2877;48.238;11.160;2023-08-01T14:57:38;22.30;99.90
5705;DHT22;2877;48.238;11.160;2023-08-01T15:00:04;21.30;99.90
5705;DHT22;2877;48.238;11.160;2023-08-01T15:02:30;20.40;99.90
5705;DHT22;2877;48.238;11.160;2023-08-01T15:04:56;19.80;99.90
5705;DHT22;2877;48.238;11.160;2023-08-01T15:07:23;19.40;99.90
5705;DHT22;2877;48.238;11.160;2023-08-01T15:09:48;19.20;99.90
5705;DHT22;2877;48.238;11.160;2023-08-01T15:12:15;19.00;99.90
5705;DHT22;2877;48.238;11.160;2023-08-01T15:14:41;18.70;99.90
5705;DHT22;2877;48.238;11.160;2023-08-01T15:17:06;18.60;99.90
5705;DHT22;2877;48.238;11.160;2023-08-01T15:19:33;18.60;99.90
5705;DHT22;2877;48.238;11.160;2023-08-01T15:21:58;18.50;99.90
5705;DHT22;2877;48.238;11.160;2023-08-01T15:24:24;18.40;99.90
5705;DHT22;2877;48.238;11.160;2023-08-01T15:26:50;18.40;99.90
5705;DHT22;2877;48.238;11.160;2023-08-01T15:29:15;19.00;99.90
5705;DHT22;2877;48.238;11.160;2023-08-01T15:31:41;19.50;99.90
5705;DHT22;2877;48.238;11.160;2023-08-01T15:34:07;19.30;99.90
5705;DHT22;2877;48.238;11.160;2023-08-01T15:36:34;19.20;99.90
5705;DHT22;2877;48.238;11.160;2023-08-01T15:39:00;19.20;99.90
5705;DHT22;2877;48.238;11.160;2023-08-01T15:41:26;19.20;99.90
5705;DHT22;2877;48.238;11.160;2023-08-01T15:43:52;19.10;99.90
5705;DHT22;2877;48.238;11.160;2023-08-01T15:46:18;19.10;99.90